sensor_id;sensor_type;location;lat;lon;timestamp;pressure;altitude;pressure_sealevel;temperature;humidity
35224;BME280;21367;51.930;8.112;2022-11-20T00:02:05;100717.00;;;-3.22;98.02
35224;BME280;21367;51.930;8.112;2022-11-20T00:07:09;100711.38;;;-3.29;97.08
35224;BME280;21367;51.930;8.112;2022-11-20T00:12:15;100706.34;;;-3.37;98.11
35224;BME280;21367;51.930;8.112;2022-11-20T00:17:22;100709.16;;;-3.34;97.39
35224;BME280;21367;51.930;8.112;2022-11-20T00:22:26;100719.38;;;-3.41;97.25
35224;BME280;21367;51.930;8.112;2022-11-20T00:27:30;100709.00;;;-3.53;98.35
35224;BME280;21367;51.930;8.112;2022-11-20T00:32:36;100706.78;;;-3.59;98.75
35224;BME280;21367;51.930;8.112;2022-11-20T00:37:40;100705.59;;;-3.54;98.93
35224;BME280;21367;51.930;8.112;2022-11-20T00:42:43;100700.41;;;-3.55;98.76
35224;BME280;21367;51.930;8.112;2022-11-20T00:47:50;100699.38;;;-3.66;97.94
35224;BME280;21367;51.930;8.112;2022-11-20T00:52:56;100692.88;;;-3.64;97.82
35224;BME280;21367;51.930;8.112;2022-11-20T00:58:01;100701.72;;;-3.67;97.99
35224;BME280;21367;51.930;8.112;2022-11-20T01:03:07;100704.13;;;-3.69;97.92
35224;BME280;21367;51.930;8.112;2022-11-20T01:08:11;100702.63;;;-3.76;98.52
35224;BME280;21367;51.930;8.112;2022-11-20T01:13:15;100711.34;;;-3.72;97.96
35224;BME280;21367;51.930;8.112;2022-11-20T01:18:34;100702.94;;;-3.73;97.84
35224;BME280;21367;51.930;8.112;2022-11-20T01:23:40;100709.41;;;-3.75;97.59
35224;BME280;21367;51.930;8.112;2022-11-20T01:28:44;100717.81;;;-3.91;98.30
35224;BME280;21367;51.930;8.112;2022-11-20T01:33:52;100705.88;;;-3.85;99.22
35224;BME280;21367;51.930;8.112;2022-11-20T01:38:57;100705.69;;;-3.87;98.85
35224;BME280;21367;51.930;8.112;2022-11-20T01:44:02;100716.16;;;-4.00;98.49
35224;BME280;21367;51.930;8.112;2022-11-20T01:49:15;100701.84;;;-4.01;98.25
35224;BME280;21367;51.930;8.112;2022-11-20T01:54:25;100704.19;;;-4.02;97.67
35224;BME280;21367;51.930;8.112;2022-11-20T01:59:34;100706.38;;;-4.05;97.65
35224;BME280;21367;51.930;8.112;2022-11-20T02:04:43;100693.94;;;-4.21;97.76
35224;BME280;21367;51.930;8.112;2022-11-20T02:09:48;100675.09;;;-4.09;97.96
35224;BME280;21367;51.930;8.112;2022-11-20T02:14:52;100664.44;;;-4.15;97.87
35224;BME280;21367;51.930;8.112;2022-11-20T02:20:06;100667.97;;;-4.22;97.98
35224;BME280;21367;51.930;8.112;2022-11-20T02:25:17;100668.56;;;-4.15;97.27
35224;BME280;21367;51.930;8.112;2022-11-20T02:30:22;100665.91;;;-4.17;97.91
35224;BME280;21367;51.930;8.112;2022-11-20T02:35:42;100645.25;;;-4.14;96.80
35224;BME280;21367;51.930;8.112;2022-11-20T02:40:52;100643.31;;;-4.26;96.86
35224;BME280;21367;51.930;8.112;2022-11-20T02:45:58;100640.63;;;-4.27;96.62
35224;BME280;21367;51.930;8.112;2022-11-20T02:51:04;100637.22;;;-4.36;96.20
35224;BME280;21367;51.930;8.112;2022-11-20T02:56:11;100647.53;;;-4.42;97.38
35224;BME280;21367;51.930;8.112;2022-11-20T03:01:15;100644.47;;;-4.31;97.67
35224;BME280;21367;51.930;8.112;2022-11-20T03:06:19;100649.19;;;-4.34;97.74
35224;BME280;21367;51.930;8.112;2022-11-20T03:11:26;100636.50;;;-4.35;97.44
35224;BME280;21367;51.930;8.112;2022-11-20T03:16:31;100633.25;;;-4.34;97.39
35224;BME280;21367;51.930;8.112;2022-11-20T03:21:37;100638.41;;;-4.42;96.89
35224;BME280;21367;51.930;8.112;2022-11-20T03:26:45;100635.59;;;-4.45;96.89
35224;BME280;21367;51.930;8.112;2022-11-20T03:31:50;100630.06;;;-4.58;97.36
35224;BME280;21367;51.930;8.112;2022-11-20T03:36:56;100632.25;;;-4.61;97.68
35224;BME280;21367;51.930;8.112;2022-11-20T03:42:10;100625.22;;;-4.56;96.78
35224;BME280;21367;51.930;8.112;2022-11-20T03:47:34;100626.56;;;-4.84;97.33
35224;BME280;21367;51.930;8.112;2022-11-20T03:52:40;100625.69;;;-4.85;98.48
35224;BME280;21367;51.930;8.112;2022-11-20T03:57:48;100620.44;;;-4.71;97.69
35224;BME280;21367;51.930;8.112;2022-11-20T04:02:52;100621.00;;;-4.73;96.46
35224;BME280;21367;51.930;8.112;2022-11-20T04:07:57;100612.28;;;-4.77;96.11
35224;BME280;21367;51.930;8.112;2022-11-20T04:13:04;100615.84;;;-4.75;96.08
35224;BME280;21367;51.930;8.112;2022-11-20T04:18:11;100611.84;;;-4.81;95.91
35224;BME280;21367;51.930;8.112;2022-11-20T04:23:15;100625.22;;;-4.90;96.23
35224;BME280;21367;51.930;8.112;2022-11-20T04:28:22;100621.25;;;-4.88;96.77
35224;BME280;21367;51.930;8.112;2022-11-20T04:33:26;100615.19;;;-4.90;96.49
35224;BME280;21367;51.930;8.112;2022-11-20T04:38:33;100619.88;;;-4.93;96.63
35224;BME280;21367;51.930;8.112;2022-11-20T04:43:46;100615.75;;;-5.01;96.18
35224;BME280;21367;51.930;8.112;2022-11-20T04:48:52;100616.31;;;-5.03;96.11
35224;BME280;21367;51.930;8.112;2022-11-20T04:53:57;100617.75;;;-5.05;96.55
35224;BME280;21367;51.930;8.112;2022-11-20T04:59:16;100620.22;;;-5.14;97.13
35224;BME280;21367;51.930;8.112;2022-11-20T05:04:23;100620.88;;;-4.99;97.15
35224;BME280;21367;51.930;8.112;2022-11-20T05:09:29;100620.44;;;-5.04;96.78
35224;BME280;21367;51.930;8.112;2022-11-20T05:14:40;100614.53;;;-5.04;96.42
35224;BME280;21367;51.930;8.112;2022-11-20T05:19:49;100613.31;;;-5.08;96.21
35224;BME280;21367;51.930;8.112;2022-11-20T05:25:12;100605.41;;;-5.04;96.71
35224;BME280;21367;51.930;8.112;2022-11-20T05:30:19;100608.34;;;-4.99;96.18
35224;BME280;21367;51.930;8.112;2022-11-20T05:35:24;100603.66;;;-4.96;95.92
35224;BME280;21367;51.930;8.112;2022-11-20T05:40:29;100606.25;;;-4.79;96.77
35224;BME280;21367;51.930;8.112;2022-11-20T05:45:35;100614.09;;;-4.67;97.44
35224;BME280;21367;51.930;8.112;2022-11-20T05:50:41;100607.50;;;-4.58;97.73
35224;BME280;21367;51.930;8.112;2022-11-20T05:55:45;100606.03;;;-4.56;98.98
35224;BME280;21367;51.930;8.112;2022-11-20T06:00:54;100604.38;;;-4.64;98.90
35224;BME280;21367;51.930;8.112;2022-11-20T06:05:58;100603.91;;;-4.35;98.87
35224;BME280;21367;51.930;8.112;2022-11-20T06:11:08;100604.50;;;-4.21;99.49
35224;BME280;21367;51.930;8.112;2022-11-20T06:16:25;100601.88;;;-4.13;98.75
35224;BME280;21367;51.930;8.112;2022-11-20T06:21:29;100606.75;;;-3.98;97.52
35224;BME280;21367;51.930;8.112;2022-11-20T06:26:34;100606.41;;;-4.27;97.34
35224;BME280;21367;51.930;8.112;2022-11-20T06:31:41;100599.66;;;-4.10;98.96
35224;BME280;21367;51.930;8.112;2022-11-20T06:36:47;100596.72;;;-4.06;98.65
35224;BME280;21367;51.930;8.112;2022-11-20T06:41:52;100593.13;;;-4.34;99.97
35224;BME280;21367;51.930;8.112;2022-11-20T06:47:00;100594.56;;;-4.54;100.00
35224;BME280;21367;51.930;8.112;2022-11-20T06:52:04;100604.69;;;-4.10;99.26
35224;BME280;21367;51.930;8.112;2022-11-20T06:57:08;100608.19;;;-4.17;98.10
35224;BME280;21367;51.930;8.112;2022-11-20T07:02:16;100617.50;;;-4.16;98.02
35224;BME280;21367;51.930;8.112;2022-11-20T07:07:20;100621.34;;;-4.11;97.60
35224;BME280;21367;51.930;8.112;2022-11-20T07:12:25;100620.94;;;-4.07;97.25
35224;BME280;21367;51.930;8.112;2022-11-20T07:17:32;100622.81;;;-4.04;97.19
35224;BME280;21367;51.930;8.112;2022-11-20T07:22:36;100629.47;;;-3.18;100.00
35224;BME280;21367;51.930;8.112;2022-11-20T07:27:40;100625.59;;;-2.05;100.00
35224;BME280;21367;51.930;8.112;2022-11-20T07:32:51;100625.44;;;-2.07;93.59
35224;BME280;21367;51.930;8.112;2022-11-20T07:37:56;100629.50;;;-3.53;94.21
35224;BME280;21367;51.930;8.112;2022-11-20T07:43:00;100628.03;;;-3.51;96.64
35224;BME280;21367;51.930;8.112;2022-11-20T07:48:07;100627.38;;;-4.18;98.12
35224;BME280;21367;51.930;8.112;2022-11-20T07:53:12;100626.69;;;-3.64;99.06
35224;BME280;21367;51.930;8.112;2022-11-20T07:58:21;100640.31;;;-3.54;98.17
35224;BME280;21367;51.930;8.112;2022-11-20T08:03:28;100629.78;;;-3.32;97.47
35224;BME280;21367;51.930;8.112;2022-11-20T08:08:32;100627.72;;;-3.45;98.04
35224;BME280;21367;51.930;8.112;2022-11-20T08:13:36;100613.84;;;-3.67;99.64
35224;BME280;21367;51.930;8.112;2022-11-20T08:18:54;100621.09;;;-3.53;99.41
35224;BME280;21367;51.930;8.112;2022-11-20T08:23:59;100608.97;;;-3.40;100.00
35224;BME280;21367;51.930;8.112;2022-11-20T08:29:07;100614.97;;;-3.20;99.30
35224;BME280;21367;51.930;8.112;2022-11-20T08:34:13;100620.75;;;-3.13;100.00
35224;BME280;21367;51.930;8.112;2022-11-20T08:39:17;100624.22;;;-2.85;98.51
35224;BME280;21367;51.930;8.112;2022-11-20T08:44:22;100629.16;;;-3.04;100.00
35224;BME280;21367;51.930;8.112;2022-11-20T08:49:29;100631.28;;;-2.72;99.49
35224;BME280;21367;51.930;8.112;2022-11-20T08:54:33;100626.56;;;-2.77;99.09
35224;BME280;21367;51.930;8.112;2022-11-20T08:59:37;100623.94;;;-2.60;100.00
35224;BME280;21367;51.930;8.112;2022-11-20T09:04:44;100636.16;;;-2.37;99.72
35224;BME280;21367;51.930;8.112;2022-11-20T09:09:48;100611.00;;;-2.37;100.00
35224;BME280;21367;51.930;8.112;2022-11-20T09:14:52;100621.03;;;-2.65;100.00
35224;BME280;21367;51.930;8.112;2022-11-20T09:20:00;100622.34;;;-2.32;100.00
35224;BME280;21367;51.930;8.112;2022-11-20T09:25:05;100612.06;;;-2.44;100.00
35224;BME280;21367;51.930;8.112;2022-11-20T09:30:11;100612.00;;;-2.63;100.00
35224;BME280;21367;51.930;8.112;2022-11-20T09:35:22;100598.34;;;-2.28;100.00
35224;BME280;21367;51.930;8.112;2022-11-20T09:40:28;100591.38;;;-2.03;100.00
35224;BME280;21367;51.930;8.112;2022-11-20T09:45:50;100595.13;;;-2.08;100.00
35224;BME280;21367;51.930;8.112;2022-11-20T09:51:07;100590.09;;;-1.90;100.00
35224;BME280;21367;51.930;8.112;2022-11-20T09:56:17;100585.16;;;-1.88;100.00
35224;BME280;21367;51.930;8.112;2022-11-20T10:01:26;100576.44;;;-1.54;100.00
35224;BME280;21367;51.930;8.112;2022-11-20T10:06:39;100573.38;;;-1.12;100.00
35224;BME280;21367;51.930;8.112;2022-11-20T10:11:50;100567.63;;;-0.90;100.00
35224;BME280;21367;51.930;8.112;2022-11-20T10:17:02;100561.94;;;-0.88;100.00
35224;BME280;21367;51.930;8.112;2022-11-20T10:22:19;100553.44;;;-0.49;100.00
35224;BME280;21367;51.930;8.112;2022-11-20T10:27:39;100549.13;;;-0.60;100.00
35224;BME280;21367;51.930;8.112;2022-11-20T10:32:47;100545.47;;;-0.64;100.00
35224;BME280;21367;51.930;8.112;2022-11-20T10:37:57;100542.06;;;-0.64;100.00
35224;BME280;21367;51.930;8.112;2022-11-20T10:43:08;100527.81;;;-0.33;100.00
35224;BME280;21367;51.930;8.112;2022-11-20T10:48:16;100519.94;;;-0.16;100.00
35224;BME280;21367;51.930;8.112;2022-11-20T10:53:37;100529.38;;;0.17;100.00
35224;BME280;21367;51.930;8.112;2022-11-20T10:58:49;100514.19;;;0.28;100.00
35224;BME280;21367;51.930;8.112;2022-11-20T11:03:56;100516.81;;;0.39;100.00
35224;BME280;21367;51.930;8.112;2022-11-20T11:09:10;100511.81;;;0.83;100.00
35224;BME280;21367;51.930;8.112;2022-11-20T11:14:17;100501.34;;;1.01;100.00
35224;BME280;21367;51.930;8.112;2022-11-20T11:19:21;100488.81;;;1.36;100.00
35224;BME280;21367;51.930;8.112;2022-11-20T11:24:29;100481.13;;;1.46;99.82
35224;BME280;21367;51.930;8.112;2022-11-20T11:29:33;100476.66;;;1.54;99.37
35224;BME280;21367;51.930;8.112;2022-11-20T11:34:44;100466.75;;;1.80;100.00
35224;BME280;21367;51.930;8.112;2022-11-20T11:39:51;100461.25;;;1.86;98.98
35224;BME280;21367;51.930;8.112;2022-11-20T11:44:58;100463.69;;;2.20;95.85
35224;BME280;21367;51.930;8.112;2022-11-20T11:50:17;100462.78;;;2.31;94.07
35224;BME280;21367;51.930;8.112;2022-11-20T11:55:31;100452.41;;;2.40;93.92
35224;BME280;21367;51.930;8.112;2022-11-20T12:00:40;100446.16;;;2.71;92.77
35224;BME280;21367;51.930;8.112;2022-11-20T12:05:48;100439.41;;;3.22;91.98
35224;BME280;21367;51.930;8.112;2022-11-20T12:10:59;100437.25;;;3.66;88.46
35224;BME280;21367;51.930;8.112;2022-11-20T12:16:11;100435.88;;;3.45;89.22
35224;BME280;21367;51.930;8.112;2022-11-20T12:21:30;100440.06;;;3.44;89.48
35224;BME280;21367;51.930;8.112;2022-11-20T12:26:55;100430.25;;;3.24;91.18
35224;BME280;21367;51.930;8.112;2022-11-20T12:32:31;100425.59;;;3.05;89.31
35224;BME280;21367;51.930;8.112;2022-11-20T12:37:52;100413.31;;;3.50;85.70
35224;BME280;21367;51.930;8.112;2022-11-20T12:43:15;100413.22;;;4.56;81.70
35224;BME280;21367;51.930;8.112;2022-11-20T12:54:45;100387.31;;;5.34;76.85
35224;BME280;21367;51.930;8.112;2022-11-20T13:00:12;100374.91;;;5.10;76.13
35224;BME280;21367;51.930;8.112;2022-11-20T13:05:37;100376.94;;;5.31;75.21
35224;BME280;21367;51.930;8.112;2022-11-20T13:11:12;100366.94;;;5.49;73.07
35224;BME280;21367;51.930;8.112;2022-11-20T13:16:27;100363.28;;;5.60;72.56
35224;BME280;21367;51.930;8.112;2022-11-20T13:21:37;100368.25;;;5.27;74.73
35224;BME280;21367;51.930;8.112;2022-11-20T13:26:41;100362.19;;;4.39;78.20
35224;BME280;21367;51.930;8.112;2022-11-20T13:31:51;100359.28;;;4.33;78.98
35224;BME280;21367;51.930;8.112;2022-11-20T13:37:24;100342.78;;;4.27;79.44
35224;BME280;21367;51.930;8.112;2022-11-20T13:42:29;100316.03;;;4.76;77.20
35224;BME280;21367;51.930;8.112;2022-11-20T13:47:47;100309.53;;;4.38;78.62
35224;BME280;21367;51.930;8.112;2022-11-20T13:53:00;100302.81;;;4.11;79.22
35224;BME280;21367;51.930;8.112;2022-11-20T13:58:23;100296.94;;;3.44;81.38
35224;BME280;21367;51.930;8.112;2022-11-20T14:03:35;100281.50;;;3.14;84.10
35224;BME280;21367;51.930;8.112;2022-11-20T14:08:41;100276.03;;;3.08;83.86
35224;BME280;21367;51.930;8.112;2022-11-20T14:13:58;100272.81;;;3.11;83.10
35224;BME280;21367;51.930;8.112;2022-11-20T14:19:25;100262.84;;;3.14;81.54
35224;BME280;21367;51.930;8.112;2022-11-20T14:24:35;100268.22;;;3.32;79.33
35224;BME280;21367;51.930;8.112;2022-11-20T14:29:41;100256.59;;;3.22;79.11
35224;BME280;21367;51.930;8.112;2022-11-20T14:34:50;100265.75;;;2.93;79.82
35224;BME280;21367;51.930;8.112;2022-11-20T14:39:55;100252.03;;;2.65;80.92
35224;BME280;21367;51.930;8.112;2022-11-20T14:44:59;100245.09;;;2.62;82.34
35224;BME280;21367;51.930;8.112;2022-11-20T14:50:12;100232.50;;;2.25;84.06
35224;BME280;21367;51.930;8.112;2022-11-20T14:55:26;100226.03;;;2.42;83.96
35224;BME280;21367;51.930;8.112;2022-11-20T15:00:32;100214.00;;;2.26;86.07
35224;BME280;21367;51.930;8.112;2022-11-20T15:05:48;100218.84;;;2.10;88.21
35224;BME280;21367;51.930;8.112;2022-11-20T15:10:53;100208.00;;;2.13;87.39
35224;BME280;21367;51.930;8.112;2022-11-20T15:16:00;100191.19;;;2.01;89.19
35224;BME280;21367;51.930;8.112;2022-11-20T15:21:13;100200.59;;;2.16;89.02
35224;BME280;21367;51.930;8.112;2022-11-20T15:26:22;100206.44;;;2.15;89.47
35224;BME280;21367;51.930;8.112;2022-11-20T15:31:27;100204.34;;;2.34;89.25
35224;BME280;21367;51.930;8.112;2022-11-20T15:36:38;100197.16;;;2.40;88.96
35224;BME280;21367;51.930;8.112;2022-11-20T15:41:42;100190.31;;;2.26;90.13
35224;BME280;21367;51.930;8.112;2022-11-20T15:46:46;100192.22;;;2.42;89.86
35224;BME280;21367;51.930;8.112;2022-11-20T15:51:52;100184.72;;;2.18;90.29
35224;BME280;21367;51.930;8.112;2022-11-20T15:56:56;100167.53;;;2.01;90.79
35224;BME280;21367;51.930;8.112;2022-11-20T16:02:01;100145.63;;;1.90;93.13
35224;BME280;21367;51.930;8.112;2022-11-20T16:07:07;100136.44;;;1.78;93.62
35224;BME280;21367;51.930;8.112;2022-11-20T16:12:11;100129.44;;;1.62;94.47
35224;BME280;21367;51.930;8.112;2022-11-20T16:17:36;100138.88;;;1.77;93.37
35224;BME280;21367;51.930;8.112;2022-11-20T16:22:49;100126.50;;;1.56;92.90
35224;BME280;21367;51.930;8.112;2022-11-20T16:27:53;100117.31;;;1.95;92.72
35224;BME280;21367;51.930;8.112;2022-11-20T16:32:57;100108.56;;;1.78;91.27
35224;BME280;21367;51.930;8.112;2022-11-20T16:38:19;100096.69;;;1.52;94.06
35224;BME280;21367;51.930;8.112;2022-11-20T16:43:24;100088.09;;;1.50;94.66
35224;BME280;21367;51.930;8.112;2022-11-20T16:48:27;100086.59;;;1.66;95.34
35224;BME280;21367;51.930;8.112;2022-11-20T16:53:35;100080.00;;;1.68;93.66
35224;BME280;21367;51.930;8.112;2022-11-20T16:58:39;100069.91;;;1.81;94.72
35224;BME280;21367;51.930;8.112;2022-11-20T17:03:43;100060.81;;;1.46;93.99
35224;BME280;21367;51.930;8.112;2022-11-20T17:08:52;100067.84;;;1.50;95.70
35224;BME280;21367;51.930;8.112;2022-11-20T17:13:57;100061.69;;;1.22;97.07
35224;BME280;21367;51.930;8.112;2022-11-20T17:19:04;100052.34;;;1.46;96.35
35224;BME280;21367;51.930;8.112;2022-11-20T17:24:12;100048.06;;;1.45;96.39
35224;BME280;21367;51.930;8.112;2022-11-20T17:29:17;100038.25;;;1.24;98.04
35224;BME280;21367;51.930;8.112;2022-11-20T17:34:24;100033.97;;;1.48;99.46
35224;BME280;21367;51.930;8.112;2022-11-20T17:39:30;100020.00;;;1.67;98.15
35224;BME280;21367;51.930;8.112;2022-11-20T17:44:35;100015.66;;;1.52;100.00
35224;BME280;21367;51.930;8.112;2022-11-20T17:49:41;100010.41;;;1.24;100.00
35224;BME280;21367;51.930;8.112;2022-11-20T17:54:49;100022.38;;;1.27;100.00
35224;BME280;21367;51.930;8.112;2022-11-20T17:59:55;100030.53;;;0.98;100.00
35224;BME280;21367;51.930;8.112;2022-11-20T18:05:02;100008.66;;;0.98;100.00
35224;BME280;21367;51.930;8.112;2022-11-20T18:10:10;100013.31;;;0.80;100.00
35224;BME280;21367;51.930;8.112;2022-11-20T18:15:14;100020.00;;;0.91;100.00
35224;BME280;21367;51.930;8.112;2022-11-20T18:20:18;100008.53;;;0.25;100.00
35224;BME280;21367;51.930;8.112;2022-11-20T18:25:25;100005.59;;;0.07;100.00
35224;BME280;21367;51.930;8.112;2022-11-20T18:30:29;99995.94;;;0.13;100.00
35224;BME280;21367;51.930;8.112;2022-11-20T18:35:33;99977.16;;;-0.14;100.00
35224;BME280;21367;51.930;8.112;2022-11-20T18:40:46;99969.91;;;-0.21;100.00
35224;BME280;21367;51.930;8.112;2022-11-20T18:45:50;99966.81;;;-0.29;100.00
35224;BME280;21367;51.930;8.112;2022-11-20T18:50:54;99954.28;;;-0.16;100.00
35224;BME280;21367;51.930;8.112;2022-11-20T18:56:02;99943.97;;;-0.07;100.00
35224;BME280;21367;51.930;8.112;2022-11-20T19:01:07;99941.88;;;-0.36;100.00
35224;BME280;21367;51.930;8.112;2022-11-20T19:06:12;99930.38;;;-0.33;100.00
35224;BME280;21367;51.930;8.112;2022-11-20T19:11:18;99924.00;;;-0.28;100.00
35224;BME280;21367;51.930;8.112;2022-11-20T19:16:22;99918.09;;;-0.28;100.00
35224;BME280;21367;51.930;8.112;2022-11-20T19:21:26;99901.38;;;-0.03;100.00
35224;BME280;21367;51.930;8.112;2022-11-20T19:26:34;99892.50;;;-0.09;100.00
35224;BME280;21367;51.930;8.112;2022-11-20T19:31:40;99888.09;;;-0.24;100.00
35224;BME280;21367;51.930;8.112;2022-11-20T19:36:44;99883.63;;;-0.28;100.00
35224;BME280;21367;51.930;8.112;2022-11-20T19:41:51;99888.09;;;-0.35;100.00
35224;BME280;21367;51.930;8.112;2022-11-20T19:46:54;99865.69;;;-0.19;100.00
35224;BME280;21367;51.930;8.112;2022-11-20T19:52:01;99862.41;;;-0.30;100.00
35224;BME280;21367;51.930;8.112;2022-11-20T19:57:08;99855.19;;;-0.37;100.00
35224;BME280;21367;51.930;8.112;2022-11-20T20:02:12;99851.44;;;-0.30;100.00
35224;BME280;21367;51.930;8.112;2022-11-20T20:07:16;99845.63;;;-0.41;100.00
35224;BME280;21367;51.930;8.112;2022-11-20T20:12:22;99833.69;;;-0.43;100.00
35224;BME280;21367;51.930;8.112;2022-11-20T20:17:28;99811.63;;;-0.46;100.00
35224;BME280;21367;51.930;8.112;2022-11-20T20:22:34;99802.63;;;-0.42;100.00
35224;BME280;21367;51.930;8.112;2022-11-20T20:27:41;99800.19;;;-0.41;100.00
35224;BME280;21367;51.930;8.112;2022-11-20T20:32:45;99785.63;;;-0.45;100.00
35224;BME280;21367;51.930;8.112;2022-11-20T20:37:49;99779.47;;;-0.37;100.00
35224;BME280;21367;51.930;8.112;2022-11-20T20:42:55;99777.16;;;-0.34;100.00
35224;BME280;21367;51.930;8.112;2022-11-20T20:47:59;99773.44;;;-0.39;100.00
35224;BME280;21367;51.930;8.112;2022-11-20T20:53:03;99768.81;;;-0.33;100.00
35224;BME280;21367;51.930;8.112;2022-11-20T20:58:09;99768.38;;;-0.39;100.00
35224;BME280;21367;51.930;8.112;2022-11-20T21:03:15;99762.09;;;-0.32;100.00
35224;BME280;21367;51.930;8.112;2022-11-20T21:08:19;99752.66;;;-0.35;100.00
35224;BME280;21367;51.930;8.112;2022-11-20T21:13:33;99750.84;;;-0.37;100.00
35224;BME280;21367;51.930;8.112;2022-11-20T21:18:37;99739.94;;;-0.25;100.00
35224;BME280;21367;51.930;8.112;2022-11-20T21:23:44;99737.84;;;-0.30;100.00
35224;BME280;21367;51.930;8.112;2022-11-20T21:28:53;99728.03;;;-0.14;100.00
35224;BME280;21367;51.930;8.112;2022-11-20T21:33:59;99734.88;;;-0.25;100.00
35224;BME280;21367;51.930;8.112;2022-11-20T21:39:03;99728.03;;;0.11;100.00
35224;BME280;21367;51.930;8.112;2022-11-20T21:44:12;99719.25;;;0.06;100.00
35224;BME280;21367;51.930;8.112;2022-11-20T21:49:17;99718.50;;;0.07;100.00
35224;BME280;21367;51.930;8.112;2022-11-20T21:54:21;99720.03;;;0.30;100.00
35224;BME280;21367;51.930;8.112;2022-11-20T21:59:29;99717.63;;;0.32;100.00
35224;BME280;21367;51.930;8.112;2022-11-20T22:04:33;99724.41;;;0.33;100.00
35224;BME280;21367;51.930;8.112;2022-11-20T22:09:37;99719.75;;;0.26;100.00
35224;BME280;21367;51.930;8.112;2022-11-20T22:14:44;99720.78;;;0.54;100.00
35224;BME280;21367;51.930;8.112;2022-11-20T22:19:48;99726.56;;;0.40;100.00
35224;BME280;21367;51.930;8.112;2022-11-20T22:24:52;99730.56;;;0.50;100.00
35224;BME280;21367;51.930;8.112;2022-11-20T22:29:59;99729.47;;;0.84;100.00
35224;BME280;21367;51.930;8.112;2022-11-20T22:35:04;99744.34;;;0.66;100.00
35224;BME280;21367;51.930;8.112;2022-11-20T22:40:09;99750.69;;;0.73;100.00
35224;BME280;21367;51.930;8.112;2022-11-20T22:45:16;99757.59;;;0.89;100.00
35224;BME280;21367;51.930;8.112;2022-11-20T22:50:20;99768.66;;;0.78;100.00
35224;BME280;21367;51.930;8.112;2022-11-20T22:55:25;99765.94;;;0.75;100.00
35224;BME280;21367;51.930;8.112;2022-11-20T23:00:31;99762.59;;;0.62;100.00
35224;BME280;21367;51.930;8.112;2022-11-20T23:05:35;99783.13;;;0.29;100.00
35224;BME280;21367;51.930;8.112;2022-11-20T23:10:39;99792.19;;;0.38;100.00
35224;BME280;21367;51.930;8.112;2022-11-20T23:15:46;99795.97;;;0.57;100.00
35224;BME280;21367;51.930;8.112;2022-11-20T23:20:52;99803.53;;;0.32;100.00
35224;BME280;21367;51.930;8.112;2022-11-20T23:25:59;99803.41;;;0.05;100.00
35224;BME280;21367;51.930;8.112;2022-11-20T23:31:07;99811.13;;;0.57;100.00
35224;BME280;21367;51.930;8.112;2022-11-20T23:36:11;99810.09;;;0.05;100.00
35224;BME280;21367;51.930;8.112;2022-11-20T23:41:16;99814.78;;;0.49;100.00
35224;BME280;21367;51.930;8.112;2022-11-20T23:46:24;99823.81;;;0.70;100.00
35224;BME280;21367;51.930;8.112;2022-11-20T23:51:28;99826.13;;;0.67;100.00
35224;BME280;21367;51.930;8.112;2022-11-20T23:56:32;99838.19;;;0.09;100.00
